Time;durP1;ratioP1;P1;durP2;ratioP2;P2;SDS_P1;SDS_P2;PMS_P1;PMS_P2;Temp;Humidity;BMP_temperature;BMP_pressure;BME280_temperature;BME280_humidity;BME280_pressure;Samples;Min_cycle;Max_cycle;Signal;HPM_P1;HPM_P2
2022/06/13 00:01:41;;;;;;;1.40;1.30;;;22.30;62.50;23.10;96480.00;;;;5052377;28;20639;-76
2022/06/13 00:04:09;;;;;;;1.90;1.30;;;22.40;62.50;23.10;96490.00;;;;5049721;28;20245;-77
2022/06/13 00:06:37;;;;;;;1.50;1.40;;;22.40;62.70;23.10;96477.00;;;;5053752;28;20263;-78
2022/06/13 00:09:06;;;;;;;1.73;1.07;;;22.40;62.80;23.10;96478.00;;;;5053656;28;20193;-78
2022/06/13 00:11:34;;;;;;;1.83;1.37;;;22.40;62.80;23.10;96475.00;;;;5054699;28;20207;-78
2022/06/13 00:14:04;;;;;;;1.70;1.00;;;22.40;62.80;23.10;96483.00;;;;5052732;28;20284;-77
2022/06/13 00:16:31;;;;;;;1.20;1.10;;;22.40;62.90;23.20;96492.00;;;;5052528;28;20232;-77
2022/06/13 00:18:59;;;;;;;1.40;1.13;;;22.40;62.90;23.20;96510.00;;;;5055242;28;20192;-78
2022/06/13 00:21:32;;;;;;;4.20;1.20;;;22.50;63.30;23.20;96528.00;;;;5054103;28;20238;-77
2022/06/13 00:24:01;;;;;;;1.83;1.47;;;22.50;63.80;23.30;96547.00;;;;5055100;28;20622;-79
2022/06/13 00:26:32;;;;;;;1.80;1.13;;;22.50;64.00;23.30;96552.00;;;;5057275;28;20267;-77
2022/06/13 00:29:03;;;;;;;1.40;1.30;;;22.50;64.60;23.30;96569.00;;;;5054850;28;20196;-78
2022/06/13 00:31:30;;;;;;;2.33;1.20;;;22.50;64.90;23.20;96589.00;;;;5055932;28;20229;-78
2022/06/13 00:33:57;;;;;;;2.03;1.43;;;22.50;65.20;23.20;96605.00;;;;5054865;28;20276;-79
2022/06/13 00:36:25;;;;;;;1.40;1.23;;;22.50;65.70;23.20;96620.00;;;;5054287;28;20607;-77
2022/06/13 00:38:54;;;;;;;2.13;1.40;;;22.50;65.80;23.20;96654.00;;;;5054985;28;20201;-79
2022/06/13 00:41:26;;;;;;;1.20;1.20;;;22.60;66.60;23.20;96689.00;;;;5054232;28;20201;-79
2022/06/13 00:43:54;;;;;;;2.30;1.67;;;22.60;67.20;23.20;96682.00;;;;5051147;28;20267;-79
2022/06/13 00:46:26;;;;;;;2.03;1.80;;;22.50;67.90;23.10;96671.00;;;;5056607;28;20228;-80
2022/06/13 00:48:58;;;;;;;1.70;1.60;;;22.50;68.70;23.10;96652.00;;;;5046256;28;20221;-79
2022/06/13 00:51:26;;;;;;;1.97;1.60;;;22.50;68.80;23.00;96640.00;;;;5050515;28;20228;-79
2022/06/13 00:53:54;;;;;;;2.13;1.60;;;22.40;69.30;23.00;96638.00;;;;5053686;28;20228;-78
2022/06/13 00:56:27;;;;;;;2.50;1.20;;;22.40;69.80;23.00;96617.00;;;;5055868;28;20650;-79
2022/06/13 00:58:59;;;;;;;3.10;1.73;;;22.40;71.10;23.00;96603.00;;;;5048966;28;20277;-80
2022/06/13 01:01:30;;;;;;;2.23;1.90;;;22.30;71.20;22.90;96599.00;;;;5052993;28;20200;-79
2022/06/13 01:04:00;;;;;;;2.33;1.80;;;22.30;71.50;22.90;96591.00;;;;5054056;28;20197;-79
2022/06/13 01:06:31;;;;;;;2.40;2.03;;;22.20;71.70;22.90;96599.00;;;;5058137;28;20236;-78
2022/06/13 01:08:58;;;;;;;1.80;1.70;;;22.20;72.30;22.80;96592.00;;;;5053263;28;20220;-78
2022/06/13 01:11:26;;;;;;;1.83;1.73;;;22.20;72.70;22.80;96594.00;;;;5053220;28;20284;-79
2022/06/13 01:14:36;;;;;;;2.40;1.60;;;22.10;72.80;22.80;96605.00;;;;5052666;28;20654;-78
2022/06/13 01:17:41;;;;;;;1.70;1.60;;;22.10;74.50;22.80;96603.00;;;;5053468;28;20259;-79
2022/06/13 01:20:35;;;;;;;2.00;1.70;;;22.10;73.90;22.70;96602.00;;;;5034723;28;20193;-79
2022/06/13 01:24:07;;;;;;;1.97;1.87;;;22.00;73.80;22.70;96601.00;;;;5045781;28;20226;-79
2022/06/13 01:27:19;;;;;;;3.20;1.83;;;22.00;75.00;22.70;96611.00;;;;5043292;28;20228;-79
2022/06/13 01:29:59;;;;;;;2.27;2.07;;;22.00;74.90;22.60;96624.00;;;;5026416;28;20196;-80
2022/06/13 01:32:52;;;;;;;2.03;1.80;;;22.00;74.20;22.60;96623.00;;;;5052705;28;20224;-79
2022/06/13 01:35:37;;;;;;;2.20;2.10;;;21.90;75.10;22.60;96647.00;;;;5048487;28;20223;-78
2022/06/13 01:38:20;;;;;;;2.40;2.10;;;21.90;75.50;22.60;96675.00;;;;5047994;28;20270;-78
2022/06/13 01:41:03;;;;;;;2.20;2.10;;;21.90;75.80;22.60;96702.00;;;;5052966;28;20251;-78
2022/06/13 01:43:48;;;;;;;2.27;2.07;;;21.90;76.40;22.50;96721.00;;;;5051237;28;20236;-78
2022/06/13 01:46:29;;;;;;;5.20;2.07;;;21.90;76.40;22.50;96743.00;;;;5047269;28;20195;-80
2022/06/13 01:49:15;;;;;;;2.27;2.07;;;21.80;76.80;22.40;96739.00;;;;5047312;28;20224;-79
2022/06/13 01:51:53;;;;;;;2.97;2.53;;;21.80;77.40;22.30;96723.00;;;;5052870;28;20220;-79
2022/06/13 01:54:30;;;;;;;2.57;2.37;;;21.70;77.50;22.30;96714.00;;;;5054634;28;20224;-80
2022/06/13 01:57:12;;;;;;;3.83;2.37;;;21.70;77.80;22.20;96719.00;;;;5052308;28;20278;-81
2022/06/13 01:59:51;;;;;;;2.60;2.40;;;21.60;78.80;22.20;96719.00;;;;5054291;28;20629;-81
2022/06/13 02:02:30;;;;;;;3.43;2.40;;;21.60;79.30;22.20;96714.00;;;;5058389;28;20232;-81
2022/06/13 02:05:19;;;;;;;2.40;2.13;;;21.50;79.60;22.10;96716.00;;;;5045803;28;20216;-79
2022/06/13 02:07:53;;;;;;;2.40;2.20;;;21.50;81.00;22.10;96701.00;;;;5052752;28;20210;-81
2022/06/13 02:10:34;;;;;;;2.43;2.23;;;21.50;80.50;22.10;96709.00;;;;5053225;28;20291;-81
2022/06/13 02:13:08;;;;;;;2.50;2.30;;;21.40;80.80;22.10;96724.00;;;;5051825;28;20239;-81
2022/06/13 02:15:42;;;;;;;2.97;2.33;;;21.40;81.20;22.10;96720.00;;;;5052155;28;20223;-81
2022/06/13 02:18:18;;;;;;;2.90;2.50;;;21.40;81.50;22.10;96707.00;;;;5053003;28;20663;-81
2022/06/13 02:20:54;;;;;;;2.57;2.37;;;21.40;81.70;22.10;96704.00;;;;5051960;28;20687;-79
2022/06/13 02:23:29;;;;;;;2.27;2.07;;;21.40;82.00;22.00;96707.00;;;;5050847;28;20243;-79
2022/06/13 02:26:04;;;;;;;2.47;2.27;;;21.30;81.80;22.00;96697.00;;;;5046991;28;20244;-78
2022/06/13 02:28:40;;;;;;;2.73;2.23;;;21.30;82.50;22.00;96701.00;;;;5050797;28;20278;-78
2022/06/13 02:31:14;;;;;;;2.17;2.07;;;21.30;82.80;22.00;96691.00;;;;5048115;28;20679;-77
2022/06/13 02:33:48;;;;;;;2.87;2.03;;;21.30;82.90;21.90;96691.00;;;;5051537;28;20221;-76
2022/06/13 02:36:26;;;;;;;3.03;2.40;;;21.20;83.10;21.90;96698.00;;;;5051014;28;20202;-77
2022/06/13 02:38:59;;;;;;;2.77;2.10;;;21.20;83.30;21.90;96698.00;;;;5046572;28;20764;-80
2022/06/13 02:41:35;;;;;;;2.27;1.80;;;21.20;83.30;21.80;96689.00;;;;5052164;28;20711;-81
2022/06/13 02:44:12;;;;;;;1.90;1.80;;;21.20;83.60;21.80;96684.00;;;;5048999;28;20228;-81
2022/06/13 02:46:47;;;;;;;2.17;1.70;;;21.20;83.80;21.80;96672.00;;;;5052068;28;20202;-80
2022/06/13 02:49:21;;;;;;;1.73;1.63;;;21.20;83.90;21.80;96661.00;;;;5049632;28;20223;-79
2022/06/13 02:52:01;;;;;;;1.60;1.50;;;21.10;84.50;21.80;96654.00;;;;5054319;28;20631;-82
2022/06/13 02:54:36;;;;;;;1.73;1.63;;;21.20;83.90;21.80;96654.00;;;;5053260;28;20307;-80
2022/06/13 02:57:25;;;;;;;1.80;1.70;;;21.10;83.90;21.80;96650.00;;;;5056327;28;20219;-80
2022/06/13 03:00:22;;;;;;;2.00;1.90;;;21.10;84.00;21.80;96654.00;;;;5048529;28;20200;-80
2022/06/13 03:03:16;;;;;;;3.03;1.87;;;21.10;84.60;21.70;96661.00;;;;5032280;28;20559;-80
2022/06/13 03:06:02;;;;;;;1.93;1.40;;;21.10;84.10;21.70;96658.00;;;;5053334;28;20289;-81
2022/06/13 03:09:03;;;;;;;2.30;1.37;;;21.00;84.30;21.70;96664.00;;;;5050624;28;20207;-80
2022/06/13 03:11:45;;;;;;;1.10;1.10;;;21.00;84.20;21.70;96670.00;;;;5048773;28;20234;-80
2022/06/13 03:14:40;;;;;;;1.63;1.53;;;21.00;83.90;21.60;96660.00;;;;5052446;28;20215;-81
2022/06/13 03:17:20;;;;;;;1.43;1.33;;;20.90;84.40;21.60;96672.00;;;;5039463;28;20678;-80
2022/06/13 03:19:54;;;;;;;1.07;1.07;;;20.90;83.90;21.50;96660.00;;;;5035660;28;20199;-80
2022/06/13 03:22:31;;;;;;;1.60;1.30;;;20.90;84.00;21.50;96658.00;;;;5050945;28;20669;-81
2022/06/13 03:25:11;;;;;;;1.30;1.20;;;20.80;84.00;21.40;96661.00;;;;5046763;28;20635;-81
2022/06/13 03:27:46;;;;;;;1.40;1.30;;;20.80;84.40;21.40;96659.00;;;;5049849;28;20227;-81
2022/06/13 03:30:19;;;;;;;1.40;1.30;;;20.80;84.50;21.30;96649.00;;;;5050947;28;20226;-81
2022/06/13 03:35:35;;;;;;;1.47;1.30;;;20.70;84.60;21.30;96667.00;;;;5044176;28;20229;-81
2022/06/13 03:38:09;;;;;;;1.40;1.30;;;20.70;84.70;21.30;96662.00;;;;5054206;28;20684;-81
2022/06/13 03:40:44;;;;;;;2.30;1.43;;;20.70;84.90;21.30;96643.00;;;;5054554;28;20238;-81
2022/06/13 03:43:20;;;;;;;1.40;1.27;;;20.60;85.10;21.30;96642.00;;;;5050502;28;20227;-82
2022/06/13 03:45:57;;;;;;;2.27;1.40;;;20.60;85.10;21.30;96638.00;;;;5053693;28;20247;-81
2022/06/13 03:48:32;;;;;;;2.00;1.50;;;20.60;85.30;21.30;96625.00;;;;5054586;28;20302;-82
2022/06/13 03:51:07;;;;;;;2.57;1.47;;;20.60;85.30;21.30;96624.00;;;;5048679;28;20623;-81
2022/06/13 03:53:42;;;;;;;1.50;1.40;;;20.60;86.10;21.30;96623.00;;;;5054127;28;20240;-81
2022/06/13 03:56:19;;;;;;;1.63;1.43;;;20.60;85.60;21.30;96625.00;;;;5063835;28;20231;-81
2022/06/13 03:58:59;;;;;;;1.37;1.27;;;20.60;85.80;21.30;96623.00;;;;5054766;28;20265;-81
2022/06/13 04:01:33;;;;;;;1.43;1.33;;;20.60;85.90;21.30;96628.00;;;;5053226;28;20239;-81
2022/06/13 04:04:02;;;;;;;3.30;1.63;;;20.60;85.80;21.30;96629.00;;;;5054811;28;20204;-82
2022/06/13 04:06:37;;;;;;;1.50;1.40;;;20.60;85.80;21.30;96639.00;;;;5052950;28;20279;-81
2022/06/13 04:09:09;;;;;;;2.47;1.87;;;20.60;85.90;21.30;96643.00;;;;5056077;28;20699;-81
2022/06/13 04:12:08;;;;;;;1.70;1.60;;;20.60;85.80;21.30;96659.00;;;;5055120;28;20232;-81
2022/06/13 04:14:59;;;;;;;1.57;1.40;;;20.60;86.30;21.30;96661.00;;;;5038273;28;20256;-81
2022/06/13 04:17:37;;;;;;;1.50;1.40;;;20.60;86.40;21.40;96659.00;;;;5055377;28;20228;-81
2022/06/13 04:20:21;;;;;;;1.60;1.50;;;20.60;86.30;21.40;96647.00;;;;5052890;28;20185;-81
2022/06/13 04:22:55;;;;;;;1.63;1.37;;;20.60;86.50;21.40;96651.00;;;;5055384;28;20216;-81
2022/06/13 04:25:30;;;;;;;1.77;1.67;;;20.60;86.40;21.40;96651.00;;;;5062462;28;20212;-81
2022/06/13 04:28:09;;;;;;;1.77;1.67;;;20.70;86.70;21.40;96648.00;;;;5056982;28;20212;-83
2022/06/13 04:30:40;;;;;;;2.03;1.60;;;20.70;86.90;21.50;96641.00;;;;5041538;28;20204;-81
2022/06/13 04:33:15;;;;;;;2.47;2.00;;;20.70;86.70;21.50;96635.00;;;;5055904;28;20216;-81
2022/06/13 04:35:43;;;;;;;1.77;1.67;;;20.70;86.80;21.50;96640.00;;;;5042541;28;20266;-81
2022/06/13 04:38:15;;;;;;;1.97;1.80;;;20.70;86.80;21.50;96637.00;;;;5052233;28;20225;-81
2022/06/13 04:40:49;;;;;;;1.90;1.80;;;20.70;86.90;21.50;96636.00;;;;5054697;28;20254;-81
2022/06/13 04:43:23;;;;;;;1.70;1.60;;;20.80;87.10;21.60;96630.00;;;;5055257;28;20239;-80
2022/06/13 04:45:55;;;;;;;2.17;1.63;;;20.80;87.10;21.60;96635.00;;;;5054260;28;20209;-80
2022/06/13 04:48:23;;;;;;;1.53;1.43;;;20.80;87.10;21.60;96635.00;;;;5054438;28;20246;-81
2022/06/13 04:50:56;;;;;;;2.13;1.87;;;20.80;87.20;21.60;96643.00;;;;5043694;28;20273;-81
2022/06/13 04:53:27;;;;;;;2.03;1.90;;;20.90;87.30;21.70;96635.00;;;;5055850;28;20235;-82
2022/06/13 04:55:59;;;;;;;3.13;1.80;;;20.90;87.70;21.70;96631.00;;;;5057995;28;20756;-81
2022/06/13 04:58:32;;;;;;;1.80;1.70;;;20.90;87.20;21.70;96640.00;;;;5054771;28;20222;-80
2022/06/13 05:01:06;;;;;;;1.97;1.43;;;20.90;87.10;21.70;96628.00;;;;5050054;28;20231;-81
2022/06/13 05:03:41;;;;;;;2.23;1.90;;;20.90;87.00;21.70;96629.00;;;;5048329;28;20219;-80
2022/06/13 05:06:27;;;;;;;1.77;1.67;;;21.00;87.10;21.70;96631.00;;;;5041363;28;20196;-79
2022/06/13 05:08:59;;;;;;;1.93;1.83;;;21.00;86.90;21.70;96632.00;;;;5056041;28;20196;-80
2022/06/13 05:11:31;;;;;;;1.80;1.70;;;21.00;86.90;21.80;96628.00;;;;5057166;28;20235;-80
2022/06/13 05:14:06;;;;;;;1.90;1.80;;;21.00;87.20;21.80;96626.00;;;;5057765;28;20231;-81
2022/06/13 05:16:51;;;;;;;2.00;1.90;;;21.00;87.50;21.90;96626.00;;;;5058312;28;20227;-81
2022/06/13 05:19:40;;;;;;;2.90;2.33;;;21.10;87.90;22.00;96626.00;;;;5056688;28;20219;-80
2022/06/13 05:22:40;;;;;;;2.37;2.17;;;21.10;88.20;22.00;96619.00;;;;5075289;28;20287;-80
2022/06/13 05:25:37;;;;;;;1.90;1.80;;;21.20;88.20;22.10;96634.00;;;;5058059;28;20735;-80
2022/06/13 05:28:04;;;;;;;1.90;1.80;;;21.30;88.50;22.20;96633.00;;;;5051455;28;20276;-80
2022/06/13 05:30:33;;;;;;;2.03;1.93;;;21.30;88.20;22.20;96643.00;;;;5056316;28;20228;-81
2022/06/13 05:33:00;;;;;;;2.20;2.10;;;21.30;89.00;22.30;96645.00;;;;5056689;28;20662;-80
2022/06/13 05:35:35;;;;;;;2.20;2.10;;;21.40;88.50;22.40;96643.00;;;;5053290;28;20220;-80
2022/06/13 05:38:05;;;;;;;2.53;2.33;;;21.50;88.80;22.40;96636.00;;;;5052960;28;20315;-80
2022/06/13 05:40:32;;;;;;;2.10;2.00;;;21.50;88.90;22.50;96626.00;;;;5055664;28;20247;-80
2022/06/13 05:42:59;;;;;;;2.20;2.10;;;21.60;88.90;22.60;96635.00;;;;5052832;28;20193;-80
2022/06/13 05:45:28;;;;;;;2.70;2.50;;;21.60;88.90;22.60;96629.00;;;;5054265;28;20271;-80
2022/06/13 05:47:56;;;;;;;2.57;2.47;;;21.70;88.90;22.70;96643.00;;;;5053498;28;20243;-80
2022/06/13 05:50:29;;;;;;;2.87;2.67;;;21.70;89.00;22.80;96646.00;;;;5054163;28;20287;-80
2022/06/13 05:52:56;;;;;;;2.57;2.37;;;21.80;88.90;22.80;96641.00;;;;5039597;28;20189;-80
2022/06/13 05:55:24;;;;;;;2.50;2.30;;;21.90;88.80;22.80;96644.00;;;;5056603;28;20721;-81
2022/06/13 05:57:51;;;;;;;2.37;2.17;;;21.90;88.70;22.90;96632.00;;;;5058018;28;20232;-81
2022/06/13 06:00:24;;;;;;;3.83;2.50;;;22.00;88.50;22.90;96636.00;;;;5058697;28;20200;-81
2022/06/13 06:02:52;;;;;;;2.67;2.47;;;22.00;88.40;22.90;96641.00;;;;5056502;28;20200;-82
2022/06/13 06:05:20;;;;;;;2.60;2.40;;;22.00;88.30;23.00;96637.00;;;;5057144;28;20224;-81
2022/06/13 06:07:47;;;;;;;2.50;2.30;;;22.10;88.20;23.00;96642.00;;;;5057771;28;20223;-81
2022/06/13 06:10:22;;;;;;;2.43;2.00;;;22.10;88.10;23.00;96636.00;;;;5054228;28;20240;-81
2022/06/13 06:12:49;;;;;;;2.27;2.17;;;22.10;87.80;23.10;96639.00;;;;5059902;28;20254;-81
2022/06/13 06:15:16;;;;;;;4.07;2.07;;;22.20;88.00;23.10;96648.00;;;;5054258;28;20259;-81
2022/06/13 06:17:43;;;;;;;2.53;2.33;;;22.20;88.10;23.20;96642.00;;;;5055041;28;20223;-81
2022/06/13 06:20:19;;;;;;;2.63;2.53;;;22.20;88.00;23.20;96645.00;;;;5051980;28;20249;-81
2022/06/13 06:22:47;;;;;;;2.40;2.30;;;22.30;87.90;23.30;96639.00;;;;5053273;28;20606;-81
2022/06/13 06:25:15;;;;;;;2.10;2.00;;;22.30;87.90;23.30;96645.00;;;;5055581;28;20702;-81
2022/06/13 06:27:43;;;;;;;2.30;2.10;;;22.40;87.80;23.30;96655.00;;;;5056250;28;20227;-81
2022/06/13 06:30:15;;;;;;;2.23;2.13;;;22.40;87.80;23.30;96657.00;;;;5054510;28;20204;-81
2022/06/13 06:32:42;;;;;;;2.77;2.50;;;22.40;87.70;23.40;96652.00;;;;5053507;28;20633;-82
2022/06/13 06:35:10;;;;;;;3.20;2.10;;;22.40;87.50;23.30;96651.00;;;;5055591;28;20695;-81
2022/06/13 06:37:39;;;;;;;1.90;1.70;;;22.40;87.30;23.40;96652.00;;;;5055945;28;20197;-81
2022/06/13 06:40:13;;;;;;;2.23;2.00;;;22.40;87.10;23.40;96660.00;;;;5035558;28;20732;-81
2022/06/13 06:42:40;;;;;;;3.17;1.80;;;22.50;87.20;23.40;96663.00;;;;5051698;28;20313;-81
2022/06/13 06:45:10;;;;;;;2.30;2.10;;;22.50;87.30;23.40;96656.00;;;;5052478;28;20209;-81
2022/06/13 06:47:39;;;;;;;2.10;2.00;;;22.50;87.40;23.50;96662.00;;;;5052235;28;20279;-81
2022/06/13 06:50:07;;;;;;;2.27;1.90;;;22.50;87.40;23.50;96658.00;;;;5052406;28;20196;-81
2022/06/13 06:52:35;;;;;;;1.90;1.80;;;22.60;87.50;23.50;96660.00;;;;5049287;28;20211;-81
2022/06/13 07:00:37;;;;;;;1.90;1.70;;;22.60;87.20;23.50;96654.00;;;;5055385;28;20571;-81
2022/06/13 07:03:04;;;;;;;1.73;1.63;;;22.70;87.00;23.50;96668.00;;;;5055868;28;20609;-81
2022/06/13 07:05:31;;;;;;;1.90;1.80;;;22.70;87.00;23.50;96663.00;;;;5055374;28;20221;-81
2022/06/13 07:07:58;;;;;;;2.20;2.10;;;22.60;86.80;23.50;96668.00;;;;5055766;28;20204;-80
2022/06/13 07:10:26;;;;;;;2.07;1.70;;;22.70;86.80;23.60;96672.00;;;;5055993;28;20204;-81
2022/06/13 07:12:54;;;;;;;1.70;1.60;;;22.70;86.70;23.60;96675.00;;;;5072338;28;20247;-81
2022/06/13 07:15:22;;;;;;;1.63;1.53;;;22.70;86.60;23.70;96677.00;;;;5075623;28;20280;-80
2022/06/13 07:17:49;;;;;;;1.83;1.60;;;22.70;86.70;23.80;96677.00;;;;5071626;28;20637;-81
2022/06/13 07:20:17;;;;;;;3.53;1.80;;;22.80;87.10;23.90;96681.00;;;;5054514;28;20310;-81
2022/06/13 07:22:50;;;;;;;1.80;1.70;;;22.80;86.90;24.00;96682.00;;;;5056088;28;20210;-81
2022/06/13 07:25:22;;;;;;;1.40;1.30;;;22.90;86.50;24.00;96676.00;;;;5061720;28;20228;-81
2022/06/13 07:27:54;;;;;;;1.90;1.80;;;22.90;86.30;24.10;96678.00;;;;5075430;28;20239;-81
2022/06/13 07:30:24;;;;;;;1.70;1.60;;;23.00;86.80;24.10;96668.00;;;;5076071;28;20204;-81
2022/06/13 07:32:54;;;;;;;1.80;1.70;;;23.00;85.60;24.10;96674.00;;;;5077228;28;20208;-81
2022/06/13 07:35:25;;;;;;;1.53;1.43;;;23.10;85.60;24.20;96669.00;;;;5062131;28;20223;-81
2022/06/13 07:40:37;;;;;;;2.00;1.77;;;23.20;85.40;24.30;96664.00;;;;5052669;28;20255;-81
2022/06/13 07:43:11;;;;;;;1.60;1.50;;;23.20;85.70;24.50;96674.00;;;;5057483;28;20636;-81
2022/06/13 07:45:39;;;;;;;1.43;1.30;;;23.30;86.60;24.70;96673.00;;;;5060688;28;20224;-81
2022/06/13 07:48:08;;;;;;;1.50;1.40;;;23.40;87.20;24.80;96680.00;;;;5060591;28;20200;-81
2022/06/13 07:50:36;;;;;;;1.60;1.50;;;23.50;86.80;25.00;96681.00;;;;5059312;28;20230;-81
2022/06/13 07:53:03;;;;;;;2.27;1.50;;;23.60;85.60;25.00;96681.00;;;;5054396;28;20199;-81
2022/06/13 07:55:32;;;;;;;1.67;1.57;;;23.70;85.30;25.10;96683.00;;;;5060319;28;20235;-81
2022/06/13 07:58:00;;;;;;;1.67;1.57;;;23.80;85.00;25.10;96689.00;;;;5057525;28;20200;-81
2022/06/13 08:00:34;;;;;;;2.27;1.40;;;23.90;84.10;25.10;96689.00;;;;5058033;28;20228;-81
2022/06/13 08:03:04;;;;;;;2.57;1.47;;;23.90;83.40;25.10;96693.00;;;;5051933;28;20214;-81
2022/06/13 08:05:32;;;;;;;1.50;1.40;;;23.90;82.90;25.00;96692.00;;;;5056021;28;20220;-81
2022/06/13 08:07:59;;;;;;;1.63;1.37;;;23.90;82.10;25.00;96693.00;;;;5053087;28;20227;-82
2022/06/13 08:10:27;;;;;;;1.40;1.30;;;23.90;81.60;24.90;96688.00;;;;5056848;28;20286;-81
2022/06/13 08:12:54;;;;;;;1.50;1.40;;;23.90;81.20;24.90;96695.00;;;;5056527;28;20283;-81
2022/06/13 08:15:24;;;;;;;1.43;1.33;;;23.90;81.60;24.90;96698.00;;;;5055451;28;20247;-81
2022/06/13 08:17:52;;;;;;;1.53;1.43;;;23.90;81.40;25.00;96702.00;;;;5056442;28;20199;-82
2022/06/13 08:20:20;;;;;;;1.50;1.40;;;23.90;81.90;25.10;96693.00;;;;5055837;28;20220;-82
2022/06/13 08:22:50;;;;;;;1.60;1.50;;;24.00;82.40;25.20;96692.00;;;;5057358;28;20197;-81
2022/06/13 08:25:21;;;;;;;1.63;1.53;;;24.00;81.70;25.20;96692.00;;;;5059734;28;20282;-81
2022/06/13 08:27:48;;;;;;;2.37;1.30;;;24.00;81.60;25.30;96701.00;;;;5054254;28;20701;-81
2022/06/13 08:30:16;;;;;;;2.67;1.70;;;24.10;81.10;25.50;96695.00;;;;5049450;28;20236;-82
2022/06/13 08:32:44;;;;;;;1.30;1.20;;;24.10;81.10;25.70;96701.00;;;;5066226;28;20212;-81
2022/06/13 08:35:14;;;;;;;1.53;1.43;;;24.30;81.50;25.80;96696.00;;;;5059365;28;20712;-81
2022/06/13 08:37:41;;;;;;;1.50;1.30;;;24.30;81.30;25.90;96699.00;;;;5059556;28;20197;-81
2022/06/13 08:40:11;;;;;;;2.77;1.33;;;24.40;80.90;26.10;96702.00;;;;5063691;28;20220;-81
2022/06/13 08:42:47;;;;;;;2.43;1.70;;;24.60;80.90;26.30;96706.00;;;;5060155;28;20723;-81
2022/06/13 08:45:22;;;;;;;4.60;3.73;;;24.70;78.20;26.50;96710.00;;;;5064108;28;20243;-82
2022/06/13 08:47:59;;;;;;;1.80;1.60;;;24.80;79.00;26.70;96707.00;;;;5057006;28;20216;-81
2022/06/13 08:50:40;;;;;;;1.63;1.53;;;25.00;79.00;26.90;96708.00;;;;5054058;28;20251;-81
2022/06/13 08:53:18;;;;;;;1.60;1.37;;;25.10;78.50;27.00;96715.00;;;;5054197;28;20197;-81
2022/06/13 08:55:48;;;;;;;1.63;1.27;;;25.20;77.30;27.00;96721.00;;;;5057119;28;20216;-82
2022/06/13 08:58:26;;;;;;;2.37;1.50;;;25.30;76.60;27.10;96722.00;;;;5041234;28;20190;-82
2022/06/13 09:01:01;;;;;;;1.37;1.30;;;25.40;75.80;27.20;96722.00;;;;5053544;28;20315;-81
2022/06/13 09:03:37;;;;;;;2.80;1.47;;;25.50;76.50;27.40;96739.00;;;;5039490;28;20220;-82
2022/06/13 09:06:14;;;;;;;2.00;1.47;;;25.60;75.20;27.50;96729.00;;;;5035775;28;20217;-81
2022/06/13 09:08:52;;;;;;;1.47;1.37;;;25.80;74.20;27.60;96735.00;;;;5036500;28;20181;-81
2022/06/13 09:11:30;;;;;;;2.27;1.53;;;25.80;74.10;27.80;96739.00;;;;5035546;28;20208;-81
2022/06/13 09:14:04;;;;;;;1.10;1.00;;;26.00;74.20;27.90;96736.00;;;;5037496;28;20211;-81
2022/06/13 09:16:35;;;;;;;1.00;1.00;;;26.10;73.20;28.00;96749.00;;;;5036858;28;20185;-81
2022/06/13 09:19:18;;;;;;;1.97;1.30;;;26.30;71.80;28.10;96746.00;;;;5050605;28;20239;-81
2022/06/13 09:21:57;;;;;;;1.40;1.10;;;26.40;70.10;28.10;96742.00;;;;5055800;28;20634;-81
2022/06/13 09:24:33;;;;;;;1.50;1.37;;;26.50;70.00;28.20;96741.00;;;;5058327;28;20235;-81
2022/06/13 09:27:07;;;;;;;0.93;0.93;;;26.60;69.20;28.30;96739.00;;;;5075943;28;20235;-81
2022/06/13 09:29:45;;;;;;;1.33;0.90;;;26.70;68.70;28.50;96742.00;;;;5070230;28;20747;-81
2022/06/13 09:32:18;;;;;;;1.30;1.00;;;26.80;68.60;28.70;96743.00;;;;5055072;28;20681;-80
2022/06/13 09:34:50;;;;;;;1.85;0.77;;;27.00;66.40;28.90;96745.00;;;;5055313;28;20217;-81
2022/06/13 09:37:31;;;;;;;1.50;0.90;;;27.20;66.70;29.00;96749.00;;;;5052868;28;20281;-81
2022/06/13 09:39:59;;;;;;;2.63;0.80;;;27.40;65.30;29.20;96757.00;;;;5066296;28;20284;-81
2022/06/13 09:43:05;;;;;;;2.00;0.98;;;27.60;65.40;29.40;96752.00;;;;5062419;28;20200;-81
2022/06/13 09:45:55;;;;;;;0.80;0.80;;;27.80;62.60;29.60;96750.00;;;;5061709;28;20266;-82
2022/06/13 09:48:44;;;;;;;4.20;1.20;;;28.10;61.90;29.80;96755.00;;;;5056416;28;20225;-82
2022/06/13 09:51:36;;;;;;;0.77;0.70;;;28.30;63.00;29.90;96767.00;;;;5055593;28;20188;-81
2022/06/13 09:54:17;;;;;;;1.65;0.82;;;28.40;61.80;29.90;96764.00;;;;5059708;28;20224;-81
2022/06/13 09:57:01;;;;;;;2.88;0.98;;;28.60;61.10;29.90;96763.00;;;;5059244;28;20201;-81
2022/06/13 09:59:48;;;;;;;0.77;0.77;;;28.60;60.40;29.90;96764.00;;;;5054728;28;20213;-81
2022/06/13 10:02:25;;;;;;;1.85;1.10;;;28.70;59.40;29.90;96775.00;;;;5062277;28;20618;-81
2022/06/13 10:05:08;;;;;;;2.20;0.73;;;28.70;59.90;30.00;96765.00;;;;5047773;28;20697;-81
2022/06/13 10:07:45;;;;;;;1.27;0.80;;;28.80;58.60;30.20;96769.00;;;;5060252;28;20185;-81
2022/06/13 10:10:27;;;;;;;1.05;0.95;;;28.90;60.60;30.40;96768.00;;;;5057017;28;20661;-81
2022/06/13 10:13:14;;;;;;;1.33;1.00;;;28.90;58.00;30.50;96767.00;;;;5052401;28;20196;-81
2022/06/13 10:15:53;;;;;;;1.17;0.90;;;29.10;58.30;30.50;96777.00;;;;5055784;28;20208;-81
2022/06/13 10:18:52;;;;;;;1.33;0.93;;;29.10;59.00;30.50;96774.00;;;;5058557;28;20609;-82
2022/06/13 10:21:42;;;;;;;2.50;1.02;;;29.20;58.00;30.70;96788.00;;;;5054877;28;20220;-82
2022/06/13 10:24:24;;;;;;;1.38;1.10;;;29.40;58.00;30.80;96767.00;;;;5056970;28;20216;-81
2022/06/13 10:27:07;;;;;;;1.10;1.00;;;29.50;57.50;30.90;96774.00;;;;5036569;28;20212;-82
2022/06/13 10:30:08;;;;;;;1.48;1.35;;;29.70;56.80;31.00;96776.00;;;;5036786;28;20598;-81
2022/06/13 10:32:56;;;;;;;2.22;0.82;;;29.80;56.40;31.00;96769.00;;;;5036131;28;20189;-82
2022/06/13 10:35:40;;;;;;;1.60;1.05;;;30.00;58.10;31.10;96786.00;;;;5036878;28;20228;-82
2022/06/13 10:38:30;;;;;;;1.70;0.90;;;30.20;56.50;31.10;96766.00;;;;5040601;28;20235;-81
2022/06/13 10:41:00;;;;;;;0.80;0.80;;;30.30;55.10;31.20;96771.00;;;;5042795;28;20225;-80
2022/06/13 10:43:32;;;;;;;0.95;0.60;;;30.50;55.70;31.20;96779.00;;;;5041127;28;20201;-81
2022/06/13 10:45:59;;;;;;;0.90;0.70;;;30.60;56.10;31.20;96780.00;;;;5037004;28;20718;-80
2022/06/13 10:48:36;;;;;;;1.73;1.00;;;30.70;55.20;31.10;96774.00;;;;5036306;28;20241;-82
2022/06/13 10:51:06;;;;;;;1.35;0.90;;;30.70;53.40;30.90;96778.00;;;;5034862;28;20189;-81
2022/06/13 10:53:41;;;;;;;2.45;1.00;;;30.60;53.90;30.80;96781.00;;;;5033664;28;20204;-82
2022/06/13 10:56:16;;;;;;;2.70;1.13;;;30.60;53.60;30.70;96777.00;;;;5065712;28;20322;-81
2022/06/13 10:58:50;;;;;;;1.95;0.77;;;30.50;53.40;30.60;96772.00;;;;5073825;28;20207;-82
2022/06/13 11:01:20;;;;;;;1.50;1.00;;;30.30;53.00;30.50;96775.00;;;;5073539;28;20246;-82
2022/06/13 11:04:02;;;;;;;1.13;0.90;;;30.20;52.60;30.20;96778.00;;;;5073419;28;20253;-82
2022/06/13 11:06:40;;;;;;;0.60;0.60;;;29.90;51.50;30.00;96776.00;;;;5073062;28;20200;-82
2022/06/13 11:09:24;;;;;;;1.48;0.80;;;29.70;51.20;29.80;96779.00;;;;5073260;28;20234;-82
2022/06/13 11:11:58;;;;;;;1.33;0.80;;;29.50;51.70;29.60;96776.00;;;;5073266;28;20245;-82
2022/06/13 11:14:36;;;;;;;1.83;0.70;;;29.20;52.00;29.40;96779.00;;;;5058384;28;20256;-82
2022/06/13 11:22:59;;;;;;;1.88;0.80;;;28.60;52.10;28.90;96780.00;;;;5050518;28;20253;-82
2022/06/13 11:25:30;;;;;;;1.33;0.60;;;28.40;52.00;28.70;96779.00;;;;5053163;28;20286;-81
2022/06/13 11:28:10;;;;;;;3.13;1.00;;;28.20;52.40;28.60;96780.00;;;;5059723;28;20217;-80
2022/06/13 11:30:49;;;;;;;1.13;0.70;;;28.10;51.00;28.40;96773.00;;;;5053935;28;20238;-81
2022/06/13 11:33:28;;;;;;;0.85;0.60;;;27.90;51.60;28.20;96770.00;;;;5053325;28;20571;-81
2022/06/13 11:36:01;;;;;;;1.23;0.73;;;27.80;50.20;28.10;96771.00;;;;5059323;28;20247;-81
2022/06/13 11:38:32;;;;;;;2.03;0.90;;;27.60;51.90;28.00;96777.00;;;;5058581;28;20197;-81
2022/06/13 11:41:12;;;;;;;2.67;1.07;;;27.50;51.70;27.90;96783.00;;;;5057906;28;20674;-80
2022/06/13 11:43:48;;;;;;;1.30;0.60;;;27.30;51.70;27.80;96777.00;;;;5058915;28;20262;-81
2022/06/13 11:46:35;;;;;;;1.20;0.60;;;27.20;51.30;27.70;96780.00;;;;5061683;28;20192;-81
2022/06/13 11:49:21;;;;;;;1.00;0.90;;;27.10;49.50;27.60;96778.00;;;;5039802;28;20221;-81